sensor_id;sensor_type;location;lat;lon;timestamp;P1;durP1;ratioP1;P2;durP2;ratioP2
20012;SDS011;10167;42.852;23.042;2023-02-01T00:02:01;0.80;;;0.80;;
20012;SDS011;10167;42.852;23.042;2023-02-01T00:07:02;0.40;;;0.40;;
20012;SDS011;10167;42.852;23.042;2023-02-01T00:09:32;0.30;;;0.30;;
20012;SDS011;10167;42.852;23.042;2023-02-01T00:12:01;0.30;;;0.30;;
20012;SDS011;10167;42.852;23.042;2023-02-01T00:14:31;0.75;;;0.75;;
20012;SDS011;10167;42.852;23.042;2023-02-01T00:17:05;0.17;;;0.17;;
20012;SDS011;10167;42.852;23.042;2023-02-01T00:19:36;0.13;;;0.13;;
20012;SDS011;10167;42.852;23.042;2023-02-01T00:22:05;0.13;;;0.13;;
20012;SDS011;10167;42.852;23.042;2023-02-01T00:24:35;0.30;;;0.30;;
20012;SDS011;10167;42.852;23.042;2023-02-01T00:27:04;2.83;;;2.28;;
20012;SDS011;10167;42.852;23.042;2023-02-01T00:29:34;0.10;;;0.10;;
20012;SDS011;10167;42.852;23.042;2023-02-01T00:32:03;0.35;;;0.35;;
20012;SDS011;10167;42.852;23.042;2023-02-01T00:34:36;0.57;;;0.57;;
20012;SDS011;10167;42.852;23.042;2023-02-01T00:37:05;0.20;;;0.20;;
20012;SDS011;10167;42.852;23.042;2023-02-01T00:39:34;0.50;;;0.50;;
20012;SDS011;10167;42.852;23.042;2023-02-01T00:42:03;2.45;;;1.38;;
20012;SDS011;10167;42.852;23.042;2023-02-01T00:44:32;0.10;;;0.10;;
20012;SDS011;10167;42.852;23.042;2023-02-01T00:47:02;0.30;;;0.30;;
20012;SDS011;10167;42.852;23.042;2023-02-01T00:49:31;0.38;;;0.38;;
20012;SDS011;10167;42.852;23.042;2023-02-01T00:52:02;0.85;;;0.85;;
20012;SDS011;10167;42.852;23.042;2023-02-01T00:54:32;0.47;;;0.47;;
20012;SDS011;10167;42.852;23.042;2023-02-01T00:57:02;0.20;;;0.20;;
20012;SDS011;10167;42.852;23.042;2023-02-01T00:59:32;0.20;;;0.20;;
20012;SDS011;10167;42.852;23.042;2023-02-01T01:02:01;0.45;;;0.45;;
20012;SDS011;10167;42.852;23.042;2023-02-01T01:04:30;0.73;;;0.73;;
20012;SDS011;10167;42.852;23.042;2023-02-01T01:06:58;0.10;;;0.10;;
20012;SDS011;10167;42.852;23.042;2023-02-01T01:09:31;0.28;;;0.28;;
20012;SDS011;10167;42.852;23.042;2023-02-01T01:12:01;0.47;;;0.38;;
20012;SDS011;10167;42.852;23.042;2023-02-01T01:14:30;0.30;;;0.30;;
20012;SDS011;10167;42.852;23.042;2023-02-01T01:17:00;0.10;;;0.10;;
20012;SDS011;10167;42.852;23.042;2023-02-01T01:19:29;0.47;;;0.47;;
20012;SDS011;10167;42.852;23.042;2023-02-01T01:21:58;0.60;;;0.52;;
20012;SDS011;10167;42.852;23.042;2023-02-01T01:24:27;0.70;;;0.50;;
20012;SDS011;10167;42.852;23.042;2023-02-01T01:26:58;0.20;;;0.20;;
20012;SDS011;10167;42.852;23.042;2023-02-01T01:29:30;0.45;;;0.45;;
20012;SDS011;10167;42.852;23.042;2023-02-01T01:31:59;0.55;;;0.55;;
20012;SDS011;10167;42.852;23.042;2023-02-01T01:34:29;0.40;;;0.40;;
20012;SDS011;10167;42.852;23.042;2023-02-01T01:36:58;0.47;;;0.47;;
20012;SDS011;10167;42.852;23.042;2023-02-01T01:39:27;0.55;;;0.55;;
20012;SDS011;10167;42.852;23.042;2023-02-01T01:41:57;0.22;;;0.22;;
20012;SDS011;10167;42.852;23.042;2023-02-01T01:47:30;0.30;;;0.30;;
20012;SDS011;10167;42.852;23.042;2023-02-01T01:50:04;0.20;;;0.20;;
20012;SDS011;10167;42.852;23.042;2023-02-01T01:52:37;0.55;;;0.55;;
20012;SDS011;10167;42.852;23.042;2023-02-01T01:55:08;3.53;;;0.73;;
20012;SDS011;10167;42.852;23.042;2023-02-01T01:57:40;0.40;;;0.40;;
20012;SDS011;10167;42.852;23.042;2023-02-01T02:00:13;0.63;;;0.63;;
20012;SDS011;10167;42.852;23.042;2023-02-01T02:02:47;0.25;;;0.25;;
20012;SDS011;10167;42.852;23.042;2023-02-01T02:05:23;0.25;;;0.25;;
20012;SDS011;10167;42.852;23.042;2023-02-01T02:07:53;0.30;;;0.30;;
20012;SDS011;10167;42.852;23.042;2023-02-01T02:10:28;0.93;;;0.88;;
20012;SDS011;10167;42.852;23.042;2023-02-01T02:13:13;2.55;;;1.23;;
20012;SDS011;10167;42.852;23.042;2023-02-01T02:15:45;0.20;;;0.20;;
20012;SDS011;10167;42.852;23.042;2023-02-01T02:18:24;0.20;;;0.20;;
20012;SDS011;10167;42.852;23.042;2023-02-01T02:21:13;0.20;;;0.20;;
20012;SDS011;10167;42.852;23.042;2023-02-01T02:23:50;0.20;;;0.20;;
20012;SDS011;10167;42.852;23.042;2023-02-01T02:36:17;0.10;;;0.10;;
20012;SDS011;10167;42.852;23.042;2023-02-01T02:38:57;0.50;;;0.50;;
20012;SDS011;10167;42.852;23.042;2023-02-01T02:41:35;0.15;;;0.15;;
20012;SDS011;10167;42.852;23.042;2023-02-01T02:44:34;0.52;;;0.52;;
20012;SDS011;10167;42.852;23.042;2023-02-01T02:47:31;1.45;;;1.35;;
20012;SDS011;10167;42.852;23.042;2023-02-01T02:50:08;0.30;;;0.30;;
20012;SDS011;10167;42.852;23.042;2023-02-01T02:53:02;1.05;;;0.52;;
20012;SDS011;10167;42.852;23.042;2023-02-01T02:55:53;0.30;;;0.30;;
20012;SDS011;10167;42.852;23.042;2023-02-01T02:58:40;0.60;;;0.60;;
20012;SDS011;10167;42.852;23.042;2023-02-01T03:01:28;0.35;;;0.35;;
20012;SDS011;10167;42.852;23.042;2023-02-01T03:04:15;0.52;;;0.52;;
20012;SDS011;10167;42.852;23.042;2023-02-01T03:06:50;0.32;;;0.32;;
20012;SDS011;10167;42.852;23.042;2023-02-01T03:09:23;1.20;;;1.10;;
20012;SDS011;10167;42.852;23.042;2023-02-01T03:11:58;1.08;;;0.63;;
20012;SDS011;10167;42.852;23.042;2023-02-01T03:14:49;0.20;;;0.20;;
20012;SDS011;10167;42.852;23.042;2023-02-01T03:17:25;0.20;;;0.20;;
20012;SDS011;10167;42.852;23.042;2023-02-01T03:20:01;0.43;;;0.43;;
20012;SDS011;10167;42.852;23.042;2023-02-01T03:22:35;0.20;;;0.20;;
20012;SDS011;10167;42.852;23.042;2023-02-01T03:25:08;0.30;;;0.30;;
20012;SDS011;10167;42.852;23.042;2023-02-01T03:27:43;0.60;;;0.60;;
20012;SDS011;10167;42.852;23.042;2023-02-01T03:30:21;0.13;;;0.13;;
20012;SDS011;10167;42.852;23.042;2023-02-01T03:32:54;0.40;;;0.40;;
20012;SDS011;10167;42.852;23.042;2023-02-01T03:35:33;0.30;;;0.30;;
20012;SDS011;10167;42.852;23.042;2023-02-01T03:38:11;0.57;;;0.57;;
20012;SDS011;10167;42.852;23.042;2023-02-01T03:40:48;0.90;;;0.75;;
20012;SDS011;10167;42.852;23.042;2023-02-01T03:43:24;0.68;;;0.68;;
20012;SDS011;10167;42.852;23.042;2023-02-01T03:45:58;0.10;;;0.10;;
20012;SDS011;10167;42.852;23.042;2023-02-01T03:48:31;0.40;;;0.40;;
20012;SDS011;10167;42.852;23.042;2023-02-01T03:51:03;0.20;;;0.20;;
20012;SDS011;10167;42.852;23.042;2023-02-01T03:53:36;0.20;;;0.20;;
20012;SDS011;10167;42.852;23.042;2023-02-01T03:56:08;0.80;;;0.52;;
20012;SDS011;10167;42.852;23.042;2023-02-01T03:58:39;0.20;;;0.20;;
20012;SDS011;10167;42.852;23.042;2023-02-01T04:01:08;0.32;;;0.32;;
20012;SDS011;10167;42.852;23.042;2023-02-01T04:03:39;0.25;;;0.25;;
20012;SDS011;10167;42.852;23.042;2023-02-01T04:06:08;0.47;;;0.47;;
20012;SDS011;10167;42.852;23.042;2023-02-01T04:08:40;0.10;;;0.10;;
20012;SDS011;10167;42.852;23.042;2023-02-01T04:11:09;0.10;;;0.10;;
20012;SDS011;10167;42.852;23.042;2023-02-01T04:13:38;0.38;;;0.38;;
20012;SDS011;10167;42.852;23.042;2023-02-01T04:16:07;1.33;;;1.23;;
20012;SDS011;10167;42.852;23.042;2023-02-01T04:18:36;0.10;;;0.10;;
20012;SDS011;10167;42.852;23.042;2023-02-01T04:21:05;0.38;;;0.38;;
20012;SDS011;10167;42.852;23.042;2023-02-01T04:23:35;2.95;;;1.38;;
20012;SDS011;10167;42.852;23.042;2023-02-01T04:26:05;0.30;;;0.30;;
20012;SDS011;10167;42.852;23.042;2023-02-01T04:28:35;0.47;;;0.47;;
20012;SDS011;10167;42.852;23.042;2023-02-01T04:31:05;0.20;;;0.20;;
20012;SDS011;10167;42.852;23.042;2023-02-01T04:33:34;1.30;;;0.85;;
20012;SDS011;10167;42.852;23.042;2023-02-01T04:36:04;0.22;;;0.22;;
20012;SDS011;10167;42.852;23.042;2023-02-01T04:38:33;2.58;;;2.17;;
20012;SDS011;10167;42.852;23.042;2023-02-01T04:41:02;0.80;;;0.80;;
20012;SDS011;10167;42.852;23.042;2023-02-01T04:43:34;0.40;;;0.40;;
20012;SDS011;10167;42.852;23.042;2023-02-01T04:46:03;0.47;;;0.47;;
20012;SDS011;10167;42.852;23.042;2023-02-01T04:48:32;1.98;;;1.40;;
20012;SDS011;10167;42.852;23.042;2023-02-01T04:51:02;0.40;;;0.40;;
20012;SDS011;10167;42.852;23.042;2023-02-01T04:53:31;0.32;;;0.32;;
20012;SDS011;10167;42.852;23.042;2023-02-01T04:56:00;0.10;;;0.10;;
20012;SDS011;10167;42.852;23.042;2023-02-01T04:58:29;0.17;;;0.17;;
20012;SDS011;10167;42.852;23.042;2023-02-01T05:00:59;0.20;;;0.20;;
20012;SDS011;10167;42.852;23.042;2023-02-01T05:03:31;0.20;;;0.20;;
20012;SDS011;10167;42.852;23.042;2023-02-01T05:06:01;0.30;;;0.30;;
20012;SDS011;10167;42.852;23.042;2023-02-01T05:08:32;0.68;;;0.52;;
20012;SDS011;10167;42.852;23.042;2023-02-01T05:11:04;1.30;;;1.30;;
20012;SDS011;10167;42.852;23.042;2023-02-01T05:13:33;0.10;;;0.10;;
20012;SDS011;10167;42.852;23.042;2023-02-01T05:16:18;0.40;;;0.40;;
20012;SDS011;10167;42.852;23.042;2023-02-01T05:18:48;0.57;;;0.57;;
20012;SDS011;10167;42.852;23.042;2023-02-01T05:21:18;0.45;;;0.45;;
20012;SDS011;10167;42.852;23.042;2023-02-01T05:23:47;0.73;;;0.73;;
20012;SDS011;10167;42.852;23.042;2023-02-01T05:26:34;0.10;;;0.10;;
20012;SDS011;10167;42.852;23.042;2023-02-01T05:29:04;0.13;;;0.13;;
20012;SDS011;10167;42.852;23.042;2023-02-01T05:31:36;1.00;;;0.80;;
20012;SDS011;10167;42.852;23.042;2023-02-01T05:34:06;0.20;;;0.20;;
20012;SDS011;10167;42.852;23.042;2023-02-01T05:36:35;0.50;;;0.50;;
20012;SDS011;10167;42.852;23.042;2023-02-01T05:39:04;0.25;;;0.25;;
20012;SDS011;10167;42.852;23.042;2023-02-01T05:41:34;0.82;;;0.82;;
20012;SDS011;10167;42.852;23.042;2023-02-01T05:44:03;0.20;;;0.20;;
20012;SDS011;10167;42.852;23.042;2023-02-01T05:46:35;0.17;;;0.17;;
20012;SDS011;10167;42.852;23.042;2023-02-01T05:49:06;0.13;;;0.13;;
20012;SDS011;10167;42.852;23.042;2023-02-01T05:51:35;0.20;;;0.20;;
20012;SDS011;10167;42.852;23.042;2023-02-01T05:54:04;0.77;;;0.77;;
20012;SDS011;10167;42.852;23.042;2023-02-01T05:56:33;0.10;;;0.10;;
20012;SDS011;10167;42.852;23.042;2023-02-01T05:59:02;1.77;;;1.65;;
20012;SDS011;10167;42.852;23.042;2023-02-01T06:01:31;0.20;;;0.20;;
20012;SDS011;10167;42.852;23.042;2023-02-01T06:04:03;1.27;;;1.17;;
20012;SDS011;10167;42.852;23.042;2023-02-01T06:06:32;0.65;;;0.65;;
20012;SDS011;10167;42.852;23.042;2023-02-01T06:09:03;4.07;;;1.98;;
20012;SDS011;10167;42.852;23.042;2023-02-01T06:11:33;1.80;;;1.50;;
20012;SDS011;10167;42.852;23.042;2023-02-01T06:14:02;3.25;;;2.50;;
20012;SDS011;10167;42.852;23.042;2023-02-01T06:16:31;2.55;;;2.35;;
20012;SDS011;10167;42.852;23.042;2023-02-01T06:19:01;2.00;;;1.75;;
20012;SDS011;10167;42.852;23.042;2023-02-01T06:21:31;1.27;;;0.75;;
20012;SDS011;10167;42.852;23.042;2023-02-01T06:24:01;3.17;;;2.30;;
20012;SDS011;10167;42.852;23.042;2023-02-01T06:26:30;30.65;;;2.33;;
20012;SDS011;10167;42.852;23.042;2023-02-01T06:28:59;2.55;;;2.35;;
20012;SDS011;10167;42.852;23.042;2023-02-01T06:31:28;1.15;;;1.10;;
20012;SDS011;10167;42.852;23.042;2023-02-01T06:34:00;0.22;;;0.22;;
20012;SDS011;10167;42.852;23.042;2023-02-01T06:36:31;1.92;;;1.83;;
20012;SDS011;10167;42.852;23.042;2023-02-01T06:39:01;1.70;;;1.60;;
20012;SDS011;10167;42.852;23.042;2023-02-01T06:41:30;0.50;;;0.50;;
20012;SDS011;10167;42.852;23.042;2023-02-01T06:44:01;7.63;;;2.55;;
20012;SDS011;10167;42.852;23.042;2023-02-01T06:46:30;1.30;;;1.20;;
20012;SDS011;10167;42.852;23.042;2023-02-01T06:49:00;1.45;;;1.35;;
20012;SDS011;10167;42.852;23.042;2023-02-01T06:51:30;7.03;;;2.75;;
20012;SDS011;10167;42.852;23.042;2023-02-01T06:53:59;0.68;;;0.68;;
20012;SDS011;10167;42.852;23.042;2023-02-01T06:56:29;5.68;;;2.35;;
20012;SDS011;10167;42.852;23.042;2023-02-01T06:58:58;3.58;;;1.88;;
20012;SDS011;10167;42.852;23.042;2023-02-01T07:01:27;2.00;;;1.90;;
20012;SDS011;10167;42.852;23.042;2023-02-01T07:03:58;1.38;;;1.30;;
20012;SDS011;10167;42.852;23.042;2023-02-01T07:06:27;19.08;;;2.25;;
20012;SDS011;10167;42.852;23.042;2023-02-01T07:08:58;1.02;;;1.02;;
20012;SDS011;10167;42.852;23.042;2023-02-01T07:11:28;0.20;;;0.20;;
20012;SDS011;10167;42.852;23.042;2023-02-01T07:13:58;0.40;;;0.40;;
20012;SDS011;10167;42.852;23.042;2023-02-01T07:16:29;3.83;;;1.90;;
20012;SDS011;10167;42.852;23.042;2023-02-01T07:18:58;4.35;;;1.80;;
20012;SDS011;10167;42.852;23.042;2023-02-01T07:21:27;1.83;;;1.63;;
20012;SDS011;10167;42.852;23.042;2023-02-01T07:23:59;2.47;;;2.03;;
20012;SDS011;10167;42.852;23.042;2023-02-01T07:26:28;4.00;;;3.13;;
20012;SDS011;10167;42.852;23.042;2023-02-01T07:28:57;3.08;;;2.70;;
20012;SDS011;10167;42.852;23.042;2023-02-01T07:31:26;4.15;;;3.85;;
20012;SDS011;10167;42.852;23.042;2023-02-01T07:33:57;4.28;;;3.88;;
20012;SDS011;10167;42.852;23.042;2023-02-01T07:36:26;5.20;;;1.23;;
20012;SDS011;10167;42.852;23.042;2023-02-01T07:38:55;2.75;;;2.55;;
20012;SDS011;10167;42.852;23.042;2023-02-01T07:41:28;1.60;;;1.50;;
20012;SDS011;10167;42.852;23.042;2023-02-01T07:43:57;6.25;;;5.55;;
20012;SDS011;10167;42.852;23.042;2023-02-01T07:46:26;6.03;;;4.57;;
20012;SDS011;10167;42.852;23.042;2023-02-01T07:48:56;2.47;;;1.80;;
20012;SDS011;10167;42.852;23.042;2023-02-01T07:51:26;2.10;;;1.48;;
20012;SDS011;10167;42.852;23.042;2023-02-01T07:53:59;1.45;;;1.38;;
20012;SDS011;10167;42.852;23.042;2023-02-01T07:56:28;2.40;;;1.30;;
20012;SDS011;10167;42.852;23.042;2023-02-01T07:58:57;0.80;;;0.80;;
20012;SDS011;10167;42.852;23.042;2023-02-01T08:01:28;1.65;;;1.40;;
20012;SDS011;10167;42.852;23.042;2023-02-01T08:03:58;0.93;;;0.82;;
20012;SDS011;10167;42.852;23.042;2023-02-01T08:06:29;1.38;;;1.27;;
20012;SDS011;10167;42.852;23.042;2023-02-01T08:09:02;0.65;;;0.55;;
20012;SDS011;10167;42.852;23.042;2023-02-01T08:11:31;1.95;;;1.38;;
20012;SDS011;10167;42.852;23.042;2023-02-01T08:14:01;0.55;;;0.55;;
20012;SDS011;10167;42.852;23.042;2023-02-01T08:16:30;1.17;;;0.65;;
20012;SDS011;10167;42.852;23.042;2023-02-01T08:19:02;0.25;;;0.25;;
20012;SDS011;10167;42.852;23.042;2023-02-01T08:21:31;0.73;;;0.73;;
20012;SDS011;10167;42.852;23.042;2023-02-01T08:24:06;0.20;;;0.20;;
20012;SDS011;10167;42.852;23.042;2023-02-01T08:29:06;4.70;;;1.08;;
20012;SDS011;10167;42.852;23.042;2023-02-01T08:31:37;0.40;;;0.40;;
20012;SDS011;10167;42.852;23.042;2023-02-01T08:34:08;0.30;;;0.30;;
20012;SDS011;10167;42.852;23.042;2023-02-01T08:36:39;0.20;;;0.20;;
20012;SDS011;10167;42.852;23.042;2023-02-01T08:39:11;1.35;;;0.75;;
20012;SDS011;10167;42.852;23.042;2023-02-01T08:41:40;0.80;;;0.68;;
20012;SDS011;10167;42.852;23.042;2023-02-01T08:44:30;0.22;;;0.22;;
20012;SDS011;10167;42.852;23.042;2023-02-01T08:47:00;0.25;;;0.25;;
20012;SDS011;10167;42.852;23.042;2023-02-01T08:49:30;0.38;;;0.38;;
20012;SDS011;10167;42.852;23.042;2023-02-01T08:51:59;9.63;;;1.42;;
20012;SDS011;10167;42.852;23.042;2023-02-01T08:54:38;0.52;;;0.43;;
20012;SDS011;10167;42.852;23.042;2023-02-01T08:57:09;0.60;;;0.60;;
20012;SDS011;10167;42.852;23.042;2023-02-01T08:59:38;1.05;;;0.95;;
20012;SDS011;10167;42.852;23.042;2023-02-01T09:02:08;1.02;;;0.90;;
20012;SDS011;10167;42.852;23.042;2023-02-01T09:07:09;1.13;;;0.73;;
20012;SDS011;10167;42.852;23.042;2023-02-01T09:09:41;0.50;;;0.50;;
20012;SDS011;10167;42.852;23.042;2023-02-01T09:12:10;0.40;;;0.40;;
20012;SDS011;10167;42.852;23.042;2023-02-01T09:14:40;3.10;;;2.80;;
20012;SDS011;10167;42.852;23.042;2023-02-01T09:17:11;3.42;;;2.92;;
20012;SDS011;10167;42.852;23.042;2023-02-01T09:19:41;3.13;;;1.85;;
20012;SDS011;10167;42.852;23.042;2023-02-01T09:22:10;0.65;;;0.65;;
20012;SDS011;10167;42.852;23.042;2023-02-01T09:24:41;3.85;;;1.27;;
20012;SDS011;10167;42.852;23.042;2023-02-01T09:27:11;0.50;;;0.50;;
20012;SDS011;10167;42.852;23.042;2023-02-01T09:29:40;2.28;;;0.68;;
20012;SDS011;10167;42.852;23.042;2023-02-01T09:32:09;7.20;;;1.60;;
20012;SDS011;10167;42.852;23.042;2023-02-01T09:34:38;1.30;;;1.20;;
20012;SDS011;10167;42.852;23.042;2023-02-01T09:37:08;0.32;;;0.30;;
20012;SDS011;10167;42.852;23.042;2023-02-01T09:39:37;0.43;;;0.43;;
20012;SDS011;10167;42.852;23.042;2023-02-01T09:42:11;1.00;;;0.95;;
20012;SDS011;10167;42.852;23.042;2023-02-01T09:47:28;0.95;;;0.95;;
20012;SDS011;10167;42.852;23.042;2023-02-01T09:50:00;0.90;;;0.80;;
20012;SDS011;10167;42.852;23.042;2023-02-01T09:55:06;0.28;;;0.22;;
20012;SDS011;10167;42.852;23.042;2023-02-01T09:57:45;14.57;;;4.93;;
20012;SDS011;10167;42.852;23.042;2023-02-01T10:00:20;0.20;;;0.20;;
20012;SDS011;10167;42.852;23.042;2023-02-01T10:02:54;1.35;;;1.25;;
20012;SDS011;10167;42.852;23.042;2023-02-01T10:05:29;0.88;;;0.88;;
20012;SDS011;10167;42.852;23.042;2023-02-01T10:08:19;0.65;;;0.65;;
20012;SDS011;10167;42.852;23.042;2023-02-01T10:10:55;0.65;;;0.65;;
20012;SDS011;10167;42.852;23.042;2023-02-01T10:13:38;0.50;;;0.50;;
20012;SDS011;10167;42.852;23.042;2023-02-01T10:16:19;1.38;;;1.10;;
20012;SDS011;10167;42.852;23.042;2023-02-01T10:19:04;1.40;;;1.30;;
20012;SDS011;10167;42.852;23.042;2023-02-01T10:21:49;2.72;;;0.75;;
20012;SDS011;10167;42.852;23.042;2023-02-01T10:24:25;2.38;;;1.77;;
20012;SDS011;10167;42.852;23.042;2023-02-01T10:27:07;0.63;;;0.63;;
20012;SDS011;10167;42.852;23.042;2023-02-01T10:29:43;0.68;;;0.65;;
20012;SDS011;10167;42.852;23.042;2023-02-01T10:32:14;9.93;;;1.48;;
20012;SDS011;10167;42.852;23.042;2023-02-01T10:34:46;0.45;;;0.45;;
20012;SDS011;10167;42.852;23.042;2023-02-01T10:37:23;0.20;;;0.20;;
20012;SDS011;10167;42.852;23.042;2023-02-01T10:39:57;0.75;;;0.75;;
20012;SDS011;10167;42.852;23.042;2023-02-01T10:42:29;3.42;;;1.98;;
20012;SDS011;10167;42.852;23.042;2023-02-01T10:45:02;2.83;;;1.40;;
20012;SDS011;10167;42.852;23.042;2023-02-01T10:47:32;1.00;;;0.90;;
20012;SDS011;10167;42.852;23.042;2023-02-01T10:50:05;0.75;;;0.75;;
20012;SDS011;10167;42.852;23.042;2023-02-01T10:52:46;0.35;;;0.35;;
20012;SDS011;10167;42.852;23.042;2023-02-01T10:55:27;1.38;;;0.75;;
20012;SDS011;10167;42.852;23.042;2023-02-01T10:58:00;0.57;;;0.57;;
20012;SDS011;10167;42.852;23.042;2023-02-01T11:00:38;1.13;;;0.95;;
20012;SDS011;10167;42.852;23.042;2023-02-01T11:03:22;3.67;;;0.82;;
20012;SDS011;10167;42.852;23.042;2023-02-01T11:06:00;0.68;;;0.63;;
20012;SDS011;10167;42.852;23.042;2023-02-01T11:08:31;0.20;;;0.20;;
20012;SDS011;10167;42.852;23.042;2023-02-01T11:11:02;1.17;;;0.57;;
20012;SDS011;10167;42.852;23.042;2023-02-01T11:13:33;0.22;;;0.22;;
20012;SDS011;10167;42.852;23.042;2023-02-01T11:16:11;1.00;;;0.98;;
20012;SDS011;10167;42.852;23.042;2023-02-01T11:18:43;5.22;;;1.70;;
20012;SDS011;10167;42.852;23.042;2023-02-01T11:21:14;2.00;;;0.85;;
20012;SDS011;10167;42.852;23.042;2023-02-01T11:23:44;0.32;;;0.32;;
20012;SDS011;10167;42.852;23.042;2023-02-01T11:26:14;1.08;;;1.05;;
20012;SDS011;10167;42.852;23.042;2023-02-01T11:28:52;0.28;;;0.28;;
20012;SDS011;10167;42.852;23.042;2023-02-01T11:31:28;1.55;;;1.45;;
20012;SDS011;10167;42.852;23.042;2023-02-01T11:33:59;1.65;;;0.63;;
20012;SDS011;10167;42.852;23.042;2023-02-01T11:36:33;1.95;;;1.23;;
20012;SDS011;10167;42.852;23.042;2023-02-01T11:39:08;8.25;;;1.20;;
20012;SDS011;10167;42.852;23.042;2023-02-01T11:41:54;0.60;;;0.60;;
20012;SDS011;10167;42.852;23.042;2023-02-01T11:44:28;0.70;;;0.40;;
20012;SDS011;10167;42.852;23.042;2023-02-01T11:47:19;0.10;;;0.10;;
20012;SDS011;10167;42.852;23.042;2023-02-01T11:49:54;27.30;;;1.35;;
20012;SDS011;10167;42.852;23.042;2023-02-01T11:52:31;0.85;;;0.55;;
20012;SDS011;10167;42.852;23.042;2023-02-01T11:55:18;0.75;;;0.75;;
20012;SDS011;10167;42.852;23.042;2023-02-01T11:58:04;0.47;;;0.47;;
20012;SDS011;10167;42.852;23.042;2023-02-01T12:09:40;6.53;;;2.25;;
20012;SDS011;10167;42.852;23.042;2023-02-01T12:12:24;1.88;;;1.77;;
20012;SDS011;10167;42.852;23.042;2023-02-01T12:15:08;8.20;;;1.30;;
20012;SDS011;10167;42.852;23.042;2023-02-01T12:18:03;0.88;;;0.75;;
20012;SDS011;10167;42.852;23.042;2023-02-01T12:20:52;1.88;;;0.30;;
20012;SDS011;10167;42.852;23.042;2023-02-01T12:26:44;0.82;;;0.63;;
20012;SDS011;10167;42.852;23.042;2023-02-01T12:29:29;0.20;;;0.20;;
20012;SDS011;10167;42.852;23.042;2023-02-01T12:32:16;6.93;;;2.05;;
20012;SDS011;10167;42.852;23.042;2023-02-01T12:35:01;1.92;;;1.08;;
20012;SDS011;10167;42.852;23.042;2023-02-01T12:37:45;0.98;;;0.50;;
20012;SDS011;10167;42.852;23.042;2023-02-01T12:40:35;0.65;;;0.65;;
20012;SDS011;10167;42.852;23.042;2023-02-01T12:43:12;0.40;;;0.40;;
20012;SDS011;10167;42.852;23.042;2023-02-01T12:45:49;0.30;;;0.30;;
20012;SDS011;10167;42.852;23.042;2023-02-01T12:48:27;0.17;;;0.17;;
20012;SDS011;10167;42.852;23.042;2023-02-01T12:51:01;1.83;;;0.82;;
20012;SDS011;10167;42.852;23.042;2023-02-01T12:53:37;0.30;;;0.30;;
20012;SDS011;10167;42.852;23.042;2023-02-01T12:56:16;0.68;;;0.63;;
20012;SDS011;10167;42.852;23.042;2023-02-01T12:58:50;0.73;;;0.70;;
20012;SDS011;10167;42.852;23.042;2023-02-01T13:01:22;1.85;;;1.52;;
20012;SDS011;10167;42.852;23.042;2023-02-01T13:03:59;0.80;;;0.80;;
20012;SDS011;10167;42.852;23.042;2023-02-01T13:06:37;3.10;;;1.08;;
20012;SDS011;10167;42.852;23.042;2023-02-01T13:09:15;2.45;;;1.73;;
20012;SDS011;10167;42.852;23.042;2023-02-01T13:11:53;0.25;;;0.25;;
20012;SDS011;10167;42.852;23.042;2023-02-01T13:14:28;0.47;;;0.47;;
20012;SDS011;10167;42.852;23.042;2023-02-01T13:17:09;18.63;;;1.42;;
20012;SDS011;10167;42.852;23.042;2023-02-01T13:19:44;0.55;;;0.55;;
20012;SDS011;10167;42.852;23.042;2023-02-01T13:22:19;0.40;;;0.40;;
20012;SDS011;10167;42.852;23.042;2023-02-01T13:24:54;0.77;;;0.77;;
20012;SDS011;10167;42.852;23.042;2023-02-01T13:27:30;0.55;;;0.55;;
20012;SDS011;10167;42.852;23.042;2023-02-01T13:30:01;1.08;;;1.00;;
20012;SDS011;10167;42.852;23.042;2023-02-01T13:42:13;15.20;;;9.90;;
20012;SDS011;10167;42.852;23.042;2023-02-01T13:44:46;17.38;;;7.30;;
20012;SDS011;10167;42.852;23.042;2023-02-01T13:47:24;47.50;;;21.95;;
20012;SDS011;10167;42.852;23.042;2023-02-01T13:49:57;43.05;;;19.25;;
20012;SDS011;10167;42.852;23.042;2023-02-01T13:55:15;18.25;;;8.30;;
20012;SDS011;10167;42.852;23.042;2023-02-01T13:57:59;5.03;;;3.90;;
20012;SDS011;10167;42.852;23.042;2023-02-01T14:00:33;16.15;;;6.10;;
20012;SDS011;10167;42.852;23.042;2023-02-01T14:09:13;8.98;;;5.18;;
20012;SDS011;10167;42.852;23.042;2023-02-01T14:11:48;9.75;;;3.58;;
20012;SDS011;10167;42.852;23.042;2023-02-01T14:23:22;0.52;;;0.52;;
20012;SDS011;10167;42.852;23.042;2023-02-01T14:26:05;1.90;;;1.70;;
20012;SDS011;10167;42.852;23.042;2023-02-01T14:28:42;3.30;;;2.88;;
20012;SDS011;10167;42.852;23.042;2023-02-01T14:31:15;5.57;;;4.68;;
20012;SDS011;10167;42.852;23.042;2023-02-01T14:34:02;4.28;;;3.50;;
20012;SDS011;10167;42.852;23.042;2023-02-01T14:36:41;1.98;;;1.85;;
20012;SDS011;10167;42.852;23.042;2023-02-01T14:39:18;0.90;;;0.90;;
20012;SDS011;10167;42.852;23.042;2023-02-01T14:41:52;0.43;;;0.43;;
20012;SDS011;10167;42.852;23.042;2023-02-01T14:44:30;0.30;;;0.30;;
20012;SDS011;10167;42.852;23.042;2023-02-01T14:47:05;0.30;;;0.30;;
20012;SDS011;10167;42.852;23.042;2023-02-01T14:53:01;0.60;;;0.60;;
20012;SDS011;10167;42.852;23.042;2023-02-01T14:55:40;19.27;;;1.70;;
20012;SDS011;10167;42.852;23.042;2023-02-01T14:58:16;0.10;;;0.10;;
20012;SDS011;10167;42.852;23.042;2023-02-01T15:00:50;1.13;;;1.02;;
20012;SDS011;10167;42.852;23.042;2023-02-01T15:03:25;1.52;;;1.33;;
20012;SDS011;10167;42.852;23.042;2023-02-01T15:06:25;0.47;;;0.47;;
20012;SDS011;10167;42.852;23.042;2023-02-01T15:08:58;1.35;;;0.63;;
20012;SDS011;10167;42.852;23.042;2023-02-01T15:11:31;0.30;;;0.30;;
20012;SDS011;10167;42.852;23.042;2023-02-01T15:14:00;0.73;;;0.63;;
20012;SDS011;10167;42.852;23.042;2023-02-01T15:16:29;0.32;;;0.28;;
20012;SDS011;10167;42.852;23.042;2023-02-01T15:19:06;1.48;;;1.40;;
20012;SDS011;10167;42.852;23.042;2023-02-01T15:21:45;0.90;;;0.82;;
20012;SDS011;10167;42.852;23.042;2023-02-01T15:24:19;3.28;;;3.00;;
20012;SDS011;10167;42.852;23.042;2023-02-01T15:26:51;0.80;;;0.80;;
20012;SDS011;10167;42.852;23.042;2023-02-01T15:29:21;0.85;;;0.68;;
20012;SDS011;10167;42.852;23.042;2023-02-01T15:31:54;1.48;;;0.95;;
20012;SDS011;10167;42.852;23.042;2023-02-01T15:34:33;7.32;;;0.88;;
20012;SDS011;10167;42.852;23.042;2023-02-01T15:37:15;1.65;;;1.55;;
20012;SDS011;10167;42.852;23.042;2023-02-01T15:40:05;2.37;;;1.67;;
20012;SDS011;10167;42.852;23.042;2023-02-01T15:42:50;5.03;;;3.85;;
20012;SDS011;10167;42.852;23.042;2023-02-01T15:45:22;8.77;;;3.92;;
20012;SDS011;10167;42.852;23.042;2023-02-01T15:47:54;1.02;;;1.02;;
20012;SDS011;10167;42.852;23.042;2023-02-01T15:50:26;2.80;;;2.10;;
20012;SDS011;10167;42.852;23.042;2023-02-01T15:55:31;3.85;;;3.55;;
20012;SDS011;10167;42.852;23.042;2023-02-01T15:58:07;12.32;;;3.65;;
20012;SDS011;10167;42.852;23.042;2023-02-01T16:00:41;4.05;;;3.60;;
20012;SDS011;10167;42.852;23.042;2023-02-01T16:03:26;3.03;;;2.47;;
20012;SDS011;10167;42.852;23.042;2023-02-01T16:06:01;6.65;;;2.15;;
20012;SDS011;10167;42.852;23.042;2023-02-01T16:08:34;3.53;;;3.00;;
20012;SDS011;10167;42.852;23.042;2023-02-01T16:11:16;2.33;;;1.90;;
20012;SDS011;10167;42.852;23.042;2023-02-01T16:13:52;12.93;;;3.47;;
20012;SDS011;10167;42.852;23.042;2023-02-01T16:16:22;3.63;;;3.25;;
20012;SDS011;10167;42.852;23.042;2023-02-01T16:18:53;5.80;;;2.67;;
20012;SDS011;10167;42.852;23.042;2023-02-01T16:21:22;3.13;;;2.38;;
20012;SDS011;10167;42.852;23.042;2023-02-01T16:23:53;12.20;;;3.55;;